Time;durP1;ratioP1;P1;durP2;ratioP2;P2;SDS_P1;SDS_P2;PMS_P1;PMS_P2;Temp;Humidity;BMP_temperature;BMP_pressure;BME280_temperature;BME280_humidity;BME280_pressure;Samples;Min_cycle;Max_cycle;Signal;HPM_P1;HPM_P2
2021/10/03 00:01:29;;;;;;;0.75;0.40;;;;;;;23.95;50.82;99432.59;5074944;28;20112;-63
2021/10/03 00:03:55;;;;;;;0.75;0.50;;;;;;;23.96;51.57;99436.13;5057339;28;20146;-63
2021/10/03 00:06:21;;;;;;;2.15;0.60;;;;;;;23.92;51.01;99443.19;5074929;28;20024;-63
2021/10/03 00:08:46;;;;;;;1.00;0.55;;;;;;;23.90;51.63;99440.69;5056972;28;20055;-63
2021/10/03 00:11:12;;;;;;;0.95;0.55;;;;;;;23.89;51.60;99436.31;5078249;28;20048;-62
2021/10/03 00:13:37;;;;;;;0.95;0.40;;;;;;;23.87;51.26;99430.25;5095104;28;20024;-62
2021/10/03 00:16:04;;;;;;;0.68;0.45;;;;;;;23.92;51.45;99440.47;5094743;28;20099;-63
2021/10/03 00:18:30;;;;;;;0.50;0.50;;;;;;;23.93;51.28;99439.38;5093843;28;20024;-63
2021/10/03 00:20:56;;;;;;;3.13;0.75;;;;;;;23.91;51.36;99438.78;5095007;28;20165;-63
2021/10/03 00:23:22;;;;;;;1.00;0.40;;;;;;;23.90;51.76;99442.63;5095095;28;20112;-63
2021/10/03 00:25:49;;;;;;;1.27;0.52;;;;;;;23.90;52.14;99437.97;5095180;28;20030;-63
2021/10/03 00:28:15;;;;;;;2.10;0.95;;;;;;;23.91;51.43;99455.22;5094681;28;20020;-62
2021/10/03 00:30:41;;;;;;;0.98;0.63;;;;;;;23.90;51.73;99448.09;5094474;28;20024;-63
2021/10/03 00:33:07;;;;;;;1.65;0.60;;;;;;;23.90;51.49;99448.09;5094503;28;20016;-63
2021/10/03 00:35:33;;;;;;;0.68;0.57;;;;;;;23.91;51.79;99455.22;5076540;28;20035;-63
2021/10/03 00:38:01;;;;;;;1.30;0.50;;;;;;;23.94;51.81;99471.13;5094462;28;20028;-63
2021/10/03 00:40:28;;;;;;;0.40;0.40;;;;;;;23.97;52.19;99460.53;5094375;28;20111;-63
2021/10/03 00:42:57;;;;;;;0.60;0.43;;;;;;;23.99;52.30;99446.56;5076376;28;20028;-63
2021/10/03 00:45:22;;;;;;;0.85;0.45;;;;;;;24.02;52.28;99457.03;5094251;28;20035;-63
2021/10/03 00:47:48;;;;;;;1.65;0.60;;;;;;;24.05;51.44;99456.53;5094222;28;20028;-63
2021/10/03 00:50:14;;;;;;;0.80;0.30;;;;;;;24.06;51.39;99452.72;5093279;28;20476;-63
2021/10/03 00:52:44;;;;;;;1.05;0.47;;;;;;;24.06;51.80;99430.84;5094363;28;20020;-63
2021/10/03 00:55:10;;;;;;;0.63;0.47;;;;;;;24.09;51.63;99435.81;5094069;28;20028;-63
2021/10/03 00:57:37;;;;;;;1.25;0.47;;;;;;;24.10;51.49;99438.31;5094163;28;20035;-63
2021/10/03 01:00:04;;;;;;;0.47;0.35;;;;;;;24.08;51.97;99420.47;5094272;28;20503;-63
2021/10/03 01:02:30;;;;;;;0.85;0.32;;;;;;;24.14;52.37;99433.16;5094305;28;20031;-63
2021/10/03 01:04:55;;;;;;;4.65;0.63;;;;;;;24.17;51.46;99427.19;5093920;28;20020;-63
2021/10/03 01:07:20;;;;;;;1.40;0.68;;;;;;;24.16;51.52;99433.75;5093964;28;20065;-62
2021/10/03 01:09:46;;;;;;;0.63;0.55;;;;;;;24.17;52.12;99433.50;5076087;28;20035;-62
2021/10/03 01:12:12;;;;;;;1.65;0.35;;;;;;;24.17;51.77;99424.47;5093666;28;20047;-62
2021/10/03 01:14:39;;;;;;;0.88;0.40;;;;;;;24.18;51.96;99424.19;5093881;28;20567;-63
2021/10/03 01:17:04;;;;;;;0.80;0.60;;;;;;;24.21;52.14;99429.16;5093760;28;20094;-62
2021/10/03 01:19:30;;;;;;;0.40;0.35;;;;;;;24.21;52.19;99426.44;5093848;28;20473;-62
2021/10/03 01:21:55;;;;;;;0.70;0.40;;;;;;;24.24;52.33;99427.84;5093731;28;20042;-63
2021/10/03 01:24:20;;;;;;;0.98;0.45;;;;;;;24.23;52.20;99415.25;5092300;28;20024;-63
2021/10/03 01:26:46;;;;;;;1.20;0.25;;;;;;;24.21;51.88;99410.00;5093771;28;20031;-63
2021/10/03 01:29:11;;;;;;;0.60;0.40;;;;;;;24.24;51.65;99414.16;5093858;28;20031;-63
2021/10/03 01:31:37;;;;;;;1.77;0.52;;;;;;;24.25;51.54;99413.06;5093704;28;20016;-62
2021/10/03 01:34:03;;;;;;;2.38;0.30;;;;;;;24.22;52.55;99398.00;5092638;28;20093;-63
2021/10/03 01:36:28;;;;;;;1.15;0.50;;;;;;;24.26;52.36;99404.59;5093777;28;20113;-63
2021/10/03 01:38:54;;;;;;;0.90;0.40;;;;;;;24.28;52.09;99407.09;5093617;28;20365;-63
2021/10/03 01:41:20;;;;;;;0.55;0.50;;;;;;;24.30;51.57;99391.25;5093726;28;20111;-63
2021/10/03 01:43:46;;;;;;;0.40;0.35;;;;;;;24.31;51.87;99398.38;5093776;28;20051;-63
2021/10/03 01:46:11;;;;;;;1.13;0.30;;;;;;;24.31;51.66;99393.75;5093772;28;20028;-63
2021/10/03 01:48:37;;;;;;;1.10;0.20;;;;;;;24.32;51.81;99384.44;5092443;28;20027;-63
2021/10/03 01:51:03;;;;;;;0.82;0.22;;;;;;;24.36;52.56;99383.94;5093356;28;20020;-63
2021/10/03 01:53:51;;;;;;;2.05;0.40;;;;;;;24.35;51.85;99383.09;5093276;28;20020;-63
2021/10/03 01:56:17;;;;;;;0.88;0.55;;;;;;;24.37;51.98;99380.13;5094101;28;20051;-63
2021/10/03 01:58:46;;;;;;;0.43;0.32;;;;;;;24.38;51.98;99377.09;5097808;28;20031;-63
2021/10/03 02:01:15;;;;;;;0.25;0.25;;;;;;;24.37;52.17;99371.91;5097342;28;20048;-63
2021/10/03 02:03:41;;;;;;;0.20;0.20;;;;;;;24.31;52.28;99362.81;5097608;28;20517;-63
2021/10/03 02:06:06;;;;;;;0.80;0.40;;;;;;;24.30;52.61;99351.03;5097567;28;20024;-63
2021/10/03 02:08:32;;;;;;;1.88;0.30;;;;;;;24.29;52.15;99360.31;5097431;28;20020;-63
2021/10/03 02:10:57;;;;;;;0.93;0.30;;;;;;;24.23;52.49;99342.16;5097342;28;20055;-63
2021/10/03 02:13:23;;;;;;;0.60;0.60;;;;;;;24.27;52.87;99348.78;5097365;28;20036;-63
2021/10/03 02:15:49;;;;;;;0.60;0.60;;;;;;;24.31;52.38;99351.84;5097116;28;20059;-63
2021/10/03 02:18:18;;;;;;;3.55;0.40;;;;;;;24.30;52.43;99358.41;5097137;28;20030;-63
2021/10/03 02:20:45;;;;;;;0.55;0.50;;;;;;;24.31;51.86;99343.63;5078993;28;20024;-63
2021/10/03 02:23:12;;;;;;;4.15;0.47;;;;;;;24.33;52.19;99338.72;5097175;28;20024;-63
2021/10/03 02:25:43;;;;;;;0.30;0.30;;;;;;;24.33;52.28;99330.53;5079126;28;20024;-63
2021/10/03 02:28:13;;;;;;;0.75;0.20;;;;;;;24.38;51.83;99335.22;5096973;28;20422;-63
2021/10/03 02:30:39;;;;;;;0.82;0.25;;;;;;;24.38;52.46;99335.22;5097202;28;20028;-63
2021/10/03 02:33:04;;;;;;;0.52;0.40;;;;;;;24.36;52.24;99329.19;5096742;28;20032;-63
2021/10/03 02:35:29;;;;;;;0.82;0.63;;;;;;;24.34;52.56;99335.72;5096701;28;20034;-63
2021/10/03 02:37:55;;;;;;;0.40;0.40;;;;;;;24.36;52.29;99324.53;5096670;28;20525;-63
2021/10/03 02:40:20;;;;;;;0.60;0.35;;;;;;;24.40;52.01;99328.41;5096736;28;20438;-63
2021/10/03 02:42:46;;;;;;;1.38;0.52;;;;;;;24.43;52.08;99316.94;5096684;28;20455;-64
2021/10/03 02:45:12;;;;;;;1.38;0.77;;;;;;;24.46;51.89;99323.81;5096745;28;20472;-63
2021/10/03 02:47:37;;;;;;;2.88;1.10;;;;;;;24.51;51.49;99323.91;5096697;28;20028;-63
2021/10/03 02:50:04;;;;;;;1.02;0.60;;;;;;;24.56;51.60;99313.81;5096640;28;20027;-63
2021/10/03 02:52:29;;;;;;;1.77;1.00;;;;;;;24.59;50.86;99313.31;5078286;28;20020;-63
2021/10/03 02:54:55;;;;;;;1.17;0.88;;;;;;;24.66;50.83;99313.94;5096802;28;20479;-63
2021/10/03 02:57:20;;;;;;;0.90;0.68;;;;;;;24.70;50.47;99311.50;5096630;28;20368;-64
2021/10/03 02:59:46;;;;;;;1.08;0.60;;;;;;;24.69;50.21;99323.53;5096218;28;20016;-64
2021/10/03 03:02:11;;;;;;;1.10;1.00;;;;;;;24.74;50.86;99307.97;5096295;28;20020;-63
2021/10/03 03:04:36;;;;;;;1.50;1.10;;;;;;;24.77;50.64;99309.38;5096300;28;20020;-64
2021/10/03 03:07:02;;;;;;;3.53;1.23;;;;;;;24.81;50.34;99318.78;5077352;28;20028;-63
2021/10/03 03:09:27;;;;;;;2.20;1.20;;;;;;;24.83;50.35;99309.22;5095611;28;20020;-64
2021/10/03 03:11:53;;;;;;;2.38;1.33;;;;;;;24.83;49.73;99306.47;5095903;28;20404;-63
2021/10/03 03:14:18;;;;;;;4.88;1.33;;;;;;;24.82;49.73;99298.50;5096152;28;20507;-63
2021/10/03 03:16:50;;;;;;;5.15;1.40;;;;;;;24.86;49.32;99284.03;5094869;28;20028;-64
2021/10/03 03:19:16;;;;;;;1.52;1.30;;;;;;;24.95;49.34;99302.75;5095904;28;20028;-63
2021/10/03 03:21:41;;;;;;;1.52;1.25;;;;;;;24.94;49.18;99295.59;5095930;28;20032;-64
2021/10/03 03:24:07;;;;;;;4.07;1.30;;;;;;;24.98;49.05;99302.22;5095709;28;20384;-63
2021/10/03 03:26:34;;;;;;;3.10;1.02;;;;;;;24.99;48.81;99303.84;5095801;28;20383;-63
2021/10/03 03:28:59;;;;;;;4.13;0.82;;;;;;;25.00;48.75;99305.53;5094669;28;20058;-64
2021/10/03 03:31:25;;;;;;;1.98;1.23;;;;;;;25.03;49.15;99294.03;5095628;28;20032;-63
2021/10/03 03:33:50;;;;;;;4.80;1.63;;;;;;;25.03;48.75;99310.47;5095593;28;20016;-63
2021/10/03 03:36:16;;;;;;;3.03;1.20;;;;;;;25.02;48.54;99308.81;5095852;28;20357;-63
2021/10/03 03:38:43;;;;;;;2.75;1.30;;;;;;;25.00;48.46;99300.88;5095841;28;20024;-63
2021/10/03 03:41:09;;;;;;;3.65;1.50;;;;;;;25.03;48.36;99300.34;5095601;28;20495;-63
2021/10/03 03:43:35;;;;;;;2.80;1.73;;;;;;;25.02;48.23;99301.44;5095399;28;20025;-64
2021/10/03 03:46:00;;;;;;;1.85;1.65;;;;;;;25.01;48.41;99297.06;5095377;28;20036;-63
2021/10/03 03:48:26;;;;;;;2.47;1.40;;;;;;;25.01;47.79;99286.09;5095352;28;20514;-63
2021/10/03 03:50:51;;;;;;;4.43;1.63;;;;;;;25.01;47.88;99301.69;5095553;28;20099;-63
2021/10/03 03:53:17;;;;;;;1.50;1.10;;;;;;;25.01;48.02;99293.47;5095314;28;20024;-63
2021/10/03 03:55:42;;;;;;;7.95;1.60;;;;;;;24.98;48.02;99294.84;5095473;28;20482;-64
2021/10/03 03:58:07;;;;;;;6.07;1.90;;;;;;;25.03;48.14;99297.63;5095089;28;20099;-64
2021/10/03 04:00:33;;;;;;;4.80;1.63;;;;;;;25.01;48.10;99301.69;5095212;28;20024;-64
2021/10/03 04:02:58;;;;;;;2.90;2.00;;;;;;;25.04;48.10;99302.03;5095241;28;20036;-63
2021/10/03 04:05:23;;;;;;;5.45;1.42;;;;;;;25.01;47.64;99291.56;5095461;28;20023;-63
2021/10/03 04:07:49;;;;;;;1.88;1.10;;;;;;;25.04;47.92;99295.72;5095354;28;20166;-63
2021/10/03 04:10:15;;;;;;;2.83;1.90;;;;;;;25.00;47.60;99283.59;5095296;28;20028;-63
2021/10/03 04:12:40;;;;;;;4.30;1.75;;;;;;;25.05;48.04;99291.84;5095060;28;20492;-64
2021/10/03 04:15:07;;;;;;;2.78;1.60;;;;;;;25.05;47.28;99279.00;5093823;28;20035;-64
2021/10/03 04:17:32;;;;;;;3.45;1.98;;;;;;;25.05;47.70;99292.69;5095086;28;20032;-63
2021/10/03 04:19:58;;;;;;;3.45;1.50;;;;;;;25.04;47.53;99287.47;5094854;28;20078;-63
2021/10/03 04:22:23;;;;;;;9.13;2.00;;;;;;;25.02;47.62;99287.72;5094867;28;20027;-64
2021/10/03 04:24:49;;;;;;;5.15;1.75;;;;;;;25.04;47.35;99290.22;5094677;28;20110;-64
2021/10/03 04:27:15;;;;;;;4.95;1.33;;;;;;;25.07;47.52;99295.19;5094668;28;20031;-64
2021/10/03 04:29:41;;;;;;;4.53;1.70;;;;;;;25.06;47.28;99274.34;5094801;28;20069;-64
2021/10/03 04:32:06;;;;;;;3.30;1.95;;;;;;;25.05;46.92;99295.44;5094326;28;20028;-63
2021/10/03 04:34:32;;;;;;;1.83;1.25;;;;;;;25.01;47.36;99286.09;5093316;28;20149;-64
2021/10/03 04:36:57;;;;;;;1.98;1.30;;;;;;;25.01;47.20;99277.88;5094619;28;20055;-63
2021/10/03 04:39:22;;;;;;;3.00;1.70;;;;;;;25.00;47.11;99278.13;5094666;28;20016;-63
2021/10/03 04:41:48;;;;;;;3.30;1.75;;;;;;;25.02;47.29;99278.66;5076682;28;20024;-63
2021/10/03 04:44:13;;;;;;;3.67;1.23;;;;;;;25.03;46.82;99286.66;5094479;28;20031;-64
2021/10/03 04:46:38;;;;;;;4.40;1.50;;;;;;;25.04;47.30;99292.97;5094170;28;20020;-64
2021/10/03 04:49:04;;;;;;;9.43;2.08;;;;;;;25.01;46.99;99269.66;5094348;28;20020;-63
2021/10/03 04:51:29;;;;;;;1.85;1.50;;;;;;;25.05;46.35;99264.44;5094054;28;20028;-64
2021/10/03 04:53:54;;;;;;;3.70;1.92;;;;;;;25.05;46.83;99275.41;5094073;28;20099;-63
2021/10/03 04:56:20;;;;;;;5.20;2.08;;;;;;;25.05;46.79;99253.50;5094230;28;20529;-64
2021/10/03 04:58:45;;;;;;;6.15;1.73;;;;;;;25.06;46.30;99271.59;5093969;28;20039;-64
2021/10/03 05:01:11;;;;;;;2.75;1.38;;;;;;;25.06;46.63;99255.16;5093894;28;20094;-64
2021/10/03 05:03:36;;;;;;;3.25;1.98;;;;;;;25.09;46.62;99257.38;5094097;28;20023;-64
2021/10/03 05:06:03;;;;;;;5.88;1.75;;;;;;;25.08;46.50;99247.50;5094237;28;20552;-64
2021/10/03 05:08:28;;;;;;;2.13;1.30;;;;;;;25.10;46.70;99267.25;5093942;28;20098;-63
2021/10/03 05:10:53;;;;;;;4.85;1.35;;;;;;;25.12;46.17;99254.13;5093507;28;20063;-64
2021/10/03 05:13:19;;;;;;;4.20;1.92;;;;;;;25.14;46.44;99258.25;5093628;28;20142;-64
2021/10/03 05:15:44;;;;;;;3.13;1.63;;;;;;;25.15;46.18;99251.69;5093966;28;20074;-63
2021/10/03 05:18:10;;;;;;;4.47;1.33;;;;;;;25.15;45.95;99254.41;5093743;28;20077;-64
2021/10/03 05:20:35;;;;;;;3.60;1.88;;;;;;;25.18;46.40;99253.06;5076127;28;20028;-63
2021/10/03 05:23:00;;;;;;;3.95;1.60;;;;;;;25.19;46.62;99250.06;5093934;28;20020;-63
2021/10/03 05:25:26;;;;;;;4.57;1.50;;;;;;;25.23;46.14;99255.84;5093722;28;20034;-63
2021/10/03 05:27:51;;;;;;;4.38;1.60;;;;;;;25.24;46.33;99252.81;5093959;28;20034;-63
2021/10/03 05:30:17;;;;;;;6.28;1.48;;;;;;;25.25;46.19;99251.75;5093494;28;20023;-63
2021/10/03 05:32:42;;;;;;;2.72;1.45;;;;;;;25.24;46.31;99257.47;5093691;28;20082;-64
2021/10/03 05:35:08;;;;;;;4.30;1.73;;;;;;;25.24;46.28;99241.03;5093833;28;20020;-64
2021/10/03 05:37:34;;;;;;;3.00;2.25;;;;;;;25.30;46.24;99256.44;5093836;28;20368;-63
2021/10/03 05:40:00;;;;;;;3.15;1.67;;;;;;;25.26;45.77;99250.66;5093441;28;20027;-63
2021/10/03 05:42:25;;;;;;;3.55;1.60;;;;;;;25.26;46.17;99245.19;5075427;28;20043;-63
2021/10/03 05:44:50;;;;;;;3.00;1.73;;;;;;;25.30;45.88;99240.81;5093314;28;20020;-63
2021/10/03 05:47:16;;;;;;;3.10;1.70;;;;;;;25.32;45.91;99248.78;5093424;28;20024;-63
2021/10/03 05:49:41;;;;;;;6.05;1.92;;;;;;;25.31;45.57;99228.75;5093379;28;20054;-64
2021/10/03 05:52:06;;;;;;;2.95;1.67;;;;;;;25.32;45.85;99246.03;5093199;28;20021;-63
2021/10/03 05:54:32;;;;;;;6.57;1.60;;;;;;;25.29;45.97;99236.41;5093192;28;20024;-64
2021/10/03 05:56:57;;;;;;;3.45;1.67;;;;;;;25.31;46.08;99242.47;5093392;28;20422;-64
2021/10/03 05:59:22;;;;;;;3.70;1.60;;;;;;;25.32;46.30;99251.53;5093149;28;20103;-64
2021/10/03 06:01:48;;;;;;;2.45;1.83;;;;;;;25.29;45.95;99241.09;5092559;28;20452;-64
2021/10/03 06:04:13;;;;;;;3.58;1.95;;;;;;;25.32;45.83;99257.00;5082674;28;20028;-63
2021/10/03 06:06:39;;;;;;;5.90;2.03;;;;;;;25.28;46.32;99253.13;5085574;28;20028;-63
2021/10/03 06:09:04;;;;;;;3.38;1.50;;;;;;;25.31;46.39;99263.56;5087341;28;20052;-64
2021/10/03 06:11:29;;;;;;;6.65;2.33;;;;;;;25.26;46.04;99234.22;5092698;28;20555;-63
2021/10/03 06:13:57;;;;;;;4.00;1.83;;;;;;;25.19;46.00;99254.69;5093396;28;20506;-63
2021/10/03 06:16:22;;;;;;;7.45;3.42;;;;;;;25.20;46.74;99270.06;5092246;28;20036;-63
2021/10/03 06:18:48;;;;;;;2.55;2.10;;;;;;;25.16;46.72;99255.22;5092986;28;20028;-63
2021/10/03 06:21:14;;;;;;;5.30;1.80;;;;;;;25.20;46.66;99248.13;5086926;28;20048;-63
2021/10/03 06:23:40;;;;;;;3.35;2.17;;;;;;;25.22;46.61;99237.72;5091647;28;20028;-63
2021/10/03 06:26:05;;;;;;;3.25;1.80;;;;;;;25.16;46.40;99250.56;5093199;28;20105;-63
2021/10/03 06:28:31;;;;;;;4.55;2.22;;;;;;;25.22;46.37;99249.53;5093049;28;20524;-63
2021/10/03 06:30:56;;;;;;;4.25;2.40;;;;;;;25.20;46.28;99261.84;5092992;28;20384;-63
2021/10/03 06:33:22;;;;;;;2.70;2.13;;;;;;;25.22;46.38;99252.28;5092917;28;20028;-63
2021/10/03 06:35:47;;;;;;;4.03;2.28;;;;;;;25.26;46.48;99252.56;5093117;28;20034;-63
2021/10/03 06:38:12;;;;;;;3.95;2.22;;;;;;;25.29;46.15;99265.75;5092916;28;20020;-63
2021/10/03 06:40:38;;;;;;;2.65;2.03;;;;;;;25.29;46.54;99269.31;5092793;28;20028;-63
2021/10/03 06:43:03;;;;;;;6.20;2.10;;;;;;;25.30;46.29;99242.72;5095317;28;20032;-63
2021/10/03 06:45:28;;;;;;;4.10;1.92;;;;;;;25.27;46.50;99256.94;5078228;28;20103;-63
2021/10/03 06:47:54;;;;;;;3.33;1.98;;;;;;;25.32;46.25;99246.84;5096421;28;20024;-63
2021/10/03 06:50:19;;;;;;;6.90;2.75;;;;;;;25.34;46.62;99246.59;5096371;28;20051;-63
2021/10/03 06:52:45;;;;;;;5.78;2.80;;;;;;;25.36;46.53;99249.91;5095336;28;20016;-63
2021/10/03 06:55:11;;;;;;;3.63;2.38;;;;;;;25.38;46.90;99244.97;5096315;28;20028;-63
2021/10/03 06:57:36;;;;;;;4.25;2.40;;;;;;;25.38;46.90;99236.75;5078099;28;20042;-64
2021/10/03 07:00:03;;;;;;;3.45;2.22;;;;;;;25.39;46.68;99249.38;5096238;28;20055;-63
2021/10/03 07:02:29;;;;;;;3.47;2.28;;;;;;;25.39;46.76;99244.72;5095121;28;20020;-63
2021/10/03 07:04:54;;;;;;;6.78;2.10;;;;;;;25.41;46.93;99247.19;5078361;28;20043;-63
2021/10/03 07:07:20;;;;;;;3.30;1.98;;;;;;;25.38;46.86;99250.44;5078011;28;20020;-63
2021/10/03 07:09:46;;;;;;;5.80;3.90;;;;;;;25.35;47.39;99262.78;5096262;28;20016;-63
2021/10/03 07:12:12;;;;;;;4.32;2.30;;;;;;;25.30;47.16;99267.41;5095854;28;20036;-62
2021/10/03 07:14:38;;;;;;;6.43;2.55;;;;;;;25.25;47.36;99267.38;5095958;28;20024;-62
2021/10/03 07:17:03;;;;;;;4.20;2.72;;;;;;;25.16;47.47;99286.22;5096156;28;20035;-63
2021/10/03 07:19:29;;;;;;;3.97;2.30;;;;;;;25.17;47.19;99262.38;5095926;28;20032;-63
2021/10/03 07:21:54;;;;;;;3.97;2.40;;;;;;;25.13;47.83;99277.66;5095963;28;20020;-63
2021/10/03 07:24:20;;;;;;;3.63;2.47;;;;;;;25.03;47.83;99272.13;5094236;28;20435;-63
2021/10/03 07:26:45;;;;;;;3.63;2.72;;;;;;;24.97;48.00;99284.94;5095686;28;20020;-62
2021/10/03 07:29:10;;;;;;;3.65;2.40;;;;;;;24.94;48.08;99268.19;5077465;28;20059;-62
2021/10/03 07:31:36;;;;;;;3.80;2.80;;;;;;;24.93;47.88;99263.81;5095538;28;20055;-63
2021/10/03 07:34:01;;;;;;;4.97;2.05;;;;;;;24.93;48.06;99266.56;5095465;28;20020;-62
2021/10/03 07:36:27;;;;;;;5.75;2.92;;;;;;;24.93;48.50;99288.47;5077323;28;20027;-62
2021/10/03 07:38:52;;;;;;;3.80;2.40;;;;;;;24.93;48.04;99272.03;5095476;28;20024;-63
2021/10/03 07:41:19;;;;;;;2.75;2.15;;;;;;;24.90;48.63;99274.19;5095489;28;20043;-62
2021/10/03 07:43:46;;;;;;;4.13;2.53;;;;;;;24.88;48.65;99290.06;5095278;28;20074;-62
2021/10/03 07:46:11;;;;;;;5.43;2.83;;;;;;;24.88;48.45;99287.34;5096316;28;20020;-62
2021/10/03 07:48:37;;;;;;;8.30;3.00;;;;;;;24.88;48.34;99261.84;5096202;28;20476;-63
2021/10/03 07:51:02;;;;;;;4.72;2.38;;;;;;;24.88;48.98;99272.81;5095257;28;20028;-63
2021/10/03 07:53:27;;;;;;;4.45;3.10;;;;;;;24.88;48.38;99267.31;5094374;28;20020;-63
2021/10/03 07:55:53;;;;;;;3.70;2.33;;;;;;;24.88;48.82;99275.53;5095037;28;20046;-63
2021/10/03 07:58:18;;;;;;;3.42;2.80;;;;;;;24.89;48.93;99272.56;5095222;28;20122;-62
2021/10/03 08:00:43;;;;;;;4.03;1.92;;;;;;;24.89;48.76;99261.59;5094906;28;20491;-62
2021/10/03 08:03:09;;;;;;;5.72;2.58;;;;;;;24.88;48.81;99257.19;5094879;28;20012;-62
2021/10/03 08:05:35;;;;;;;5.22;2.38;;;;;;;24.78;48.56;99248.88;5094752;28;20027;-62
2021/10/03 08:08:00;;;;;;;3.42;2.20;;;;;;;24.84;48.88;99256.06;5094850;28;20034;-62
2021/10/03 08:10:26;;;;;;;4.53;2.55;;;;;;;24.69;49.08;99255.91;5095168;28;20107;-63
2021/10/03 08:12:52;;;;;;;5.00;2.72;;;;;;;24.64;50.05;99260.50;5094634;28;20488;-62
2021/10/03 08:15:17;;;;;;;4.28;2.30;;;;;;;24.63;49.07;99262.41;5094802;28;20078;-62
2021/10/03 08:17:42;;;;;;;2.75;2.15;;;;;;;24.62;49.37;99268.94;5094690;28;20539;-62
2021/10/03 08:20:08;;;;;;;3.63;2.00;;;;;;;24.63;49.45;99278.84;5094570;28;20024;-62
2021/10/03 08:22:33;;;;;;;5.50;2.15;;;;;;;24.61;49.73;99261.84;5094886;28;20043;-63
2021/10/03 08:24:59;;;;;;;3.47;2.30;;;;;;;24.66;49.62;99264.63;5094466;28;20166;-62
2021/10/03 08:27:26;;;;;;;3.65;2.05;;;;;;;24.68;50.11;99259.72;5094292;28;20049;-62
2021/10/03 08:29:52;;;;;;;5.07;2.45;;;;;;;24.70;49.32;99249.34;5093473;28;20020;-62
2021/10/03 08:32:17;;;;;;;2.65;2.03;;;;;;;24.76;49.77;99259.22;5094332;28;20468;-62
2021/10/03 08:34:42;;;;;;;3.92;2.28;;;;;;;24.82;49.13;99260.97;5094209;28;20024;-62
2021/10/03 08:37:08;;;;;;;2.92;2.25;;;;;;;24.89;49.39;99249.81;5094164;28;20035;-62
2021/10/03 08:39:33;;;;;;;4.22;2.20;;;;;;;24.94;49.63;99270.94;5094226;28;20038;-62
2021/10/03 08:41:59;;;;;;;3.22;2.15;;;;;;;24.99;49.34;99254.53;5094193;28;20108;-63
2021/10/03 08:44:27;;;;;;;3.28;2.17;;;;;;;25.02;49.59;99265.81;5076118;28;20024;-62
2021/10/03 08:46:53;;;;;;;3.97;1.90;;;;;;;25.14;49.54;99280.16;5094392;28;20488;-63
2021/10/03 08:49:19;;;;;;;2.17;1.92;;;;;;;25.20;48.89;99270.06;5094170;28;20028;-62
2021/10/03 08:51:48;;;;;;;4.13;2.22;;;;;;;25.31;49.31;99269.06;5094056;28;20365;-63
2021/10/03 08:54:16;;;;;;;3.80;1.73;;;;;;;25.41;48.95;99255.41;5094168;28;20032;-63
2021/10/03 08:56:42;;;;;;;5.97;2.10;;;;;;;25.55;48.92;99259.38;5094176;28;20066;-63
2021/10/03 08:59:08;;;;;;;2.50;1.65;;;;;;;25.70;48.48;99261.38;5075783;28;20020;-63
2021/10/03 09:01:53;;;;;;;3.97;2.70;;;;;;;25.76;48.30;99255.69;5093913;28;20028;-63
2021/10/03 09:04:36;;;;;;;3.78;2.38;;;;;;;25.78;48.27;99260.88;5094080;28;20384;-63
2021/10/03 09:07:06;;;;;;;4.47;2.33;;;;;;;25.79;48.17;99279.84;5093019;28;20028;-63
2021/10/03 09:09:58;;;;;;;4.13;2.00;;;;;;;25.80;48.72;99273.25;5093721;28;20060;-63
2021/10/03 09:12:32;;;;;;;5.00;2.75;;;;;;;25.81;48.84;99283.13;5086838;28;20055;-62
2021/10/03 09:14:59;;;;;;;5.05;2.30;;;;;;;25.85;48.50;99269.72;5093589;28;20047;-63
2021/10/03 09:17:26;;;;;;;6.40;2.58;;;;;;;25.95;48.33;99270.59;5093521;28;20108;-63
2021/10/03 09:20:16;;;;;;;4.72;2.33;;;;;;;26.00;47.87;99267.84;5075543;28;20455;-63
2021/10/03 09:23:03;;;;;;;4.55;2.75;;;;;;;26.10;48.20;99266.25;5093763;28;20070;-63
2021/10/03 09:25:39;;;;;;;6.43;2.28;;;;;;;26.20;47.90;99272.63;5093800;28;20085;-63
2021/10/03 09:28:14;;;;;;;5.15;1.80;;;;;;;26.24;48.23;99287.50;5093737;28;20353;-62
2021/10/03 09:31:07;;;;;;;4.22;2.30;;;;;;;26.24;47.95;99290.25;5093737;28;20024;-63
2021/10/03 09:33:45;;;;;;;4.47;2.25;;;;;;;26.32;47.55;99297.97;5073169;28;20028;-63
2021/10/03 09:36:16;;;;;;;3.42;2.38;;;;;;;26.35;47.64;99302.09;5093398;28;20055;-63
2021/10/03 09:38:52;;;;;;;4.43;2.55;;;;;;;26.40;47.86;99293.84;5093405;28;20020;-63
2021/10/03 09:41:20;;;;;;;2.85;2.10;;;;;;;26.42;47.52;99314.47;5093271;28;20031;-63
2021/10/03 09:43:54;;;;;;;3.58;2.13;;;;;;;26.42;47.72;99316.38;5093483;28;20024;-63
2021/10/03 09:46:32;;;;;;;2.53;1.83;;;;;;;26.39;47.64;99325.16;5093210;28;20024;-63
2021/10/03 09:48:58;;;;;;;2.97;2.20;;;;;;;26.35;47.23;99349.59;5093497;28;20024;-63
2021/10/03 09:51:24;;;;;;;4.78;2.00;;;;;;;26.31;47.99;99344.88;5093248;28;20051;-63
2021/10/03 09:53:50;;;;;;;6.97;2.40;;;;;;;26.24;48.06;99355.31;5093222;28;20020;-62
2021/10/03 09:56:15;;;;;;;2.60;2.15;;;;;;;26.20;48.27;99365.16;5092076;28;20430;-63
2021/10/03 09:58:41;;;;;;;2.90;1.88;;;;;;;26.19;47.59;99382.72;5075095;28;20024;-63
2021/10/03 10:01:07;;;;;;;3.00;2.08;;;;;;;26.18;47.98;99386.56;5093302;28;20050;-63
2021/10/03 10:03:37;;;;;;;3.38;2.20;;;;;;;26.14;47.70;99402.75;5093322;28;20017;-63
2021/10/03 10:06:03;;;;;;;7.50;3.13;;;;;;;26.11;48.37;99405.16;5093038;28;20028;-63
2021/10/03 10:08:29;;;;;;;5.50;2.10;;;;;;;26.11;47.97;99399.66;5075091;28;20034;-64
2021/10/03 10:11:03;;;;;;;3.10;2.38;;;;;;;26.02;47.89;99413.03;5091894;28;20399;-63
2021/10/03 10:13:29;;;;;;;3.03;1.88;;;;;;;25.97;48.53;99421.25;5054796;28;20145;-62
2021/10/03 10:16:31;;;;;;;3.28;2.30;;;;;;;25.88;48.30;99429.16;5054964;28;20047;-63
2021/10/03 10:19:35;;;;;;;2.75;1.70;;;;;;;25.81;48.86;99445.03;5076722;28;20031;-63
2021/10/03 10:22:15;;;;;;;2.95;1.75;;;;;;;25.69;48.43;99440.78;5074524;28;20036;-63
2021/10/03 10:24:43;;;;;;;1.75;1.33;;;;;;;25.61;48.79;99435.78;5076614;28;20024;-63
2021/10/03 10:27:29;;;;;;;2.40;1.50;;;;;;;25.59;49.23;99451.69;5076595;28;20035;-63
2021/10/03 10:29:58;;;;;;;2.03;1.33;;;;;;;25.54;49.27;99449.72;5038380;28;20036;-63
2021/10/03 10:32:25;;;;;;;2.65;1.10;;;;;;;25.55;48.68;99445.88;5058376;28;20479;-62
2021/10/03 10:35:09;;;;;;;1.52;1.20;;;;;;;25.55;49.06;99456.84;5076510;28;20158;-63
2021/10/03 10:37:50;;;;;;;1.67;1.05;;;;;;;25.55;48.56;99456.84;5076195;28;20039;-63
2021/10/03 10:40:35;;;;;;;0.90;0.75;;;;;;;25.56;48.58;99453.03;5076361;28;20369;-63
2021/10/03 10:43:04;;;;;;;0.85;0.80;;;;;;;25.60;48.38;99443.19;5074346;28;20028;-63
2021/10/03 10:45:50;;;;;;;1.02;0.90;;;;;;;25.61;48.30;99455.81;5076010;28;20040;-63
2021/10/03 10:48:18;;;;;;;1.30;1.08;;;;;;;25.55;48.78;99467.81;5076117;28;20073;-63
2021/10/03 10:50:43;;;;;;;1.23;1.00;;;;;;;25.51;48.73;99453.00;5076050;28;20476;-63
2021/10/03 10:53:30;;;;;;;1.52;0.88;;;;;;;25.49;48.89;99455.13;5075617;28;20036;-63
2021/10/03 10:56:16;;;;;;;3.53;0.95;;;;;;;25.54;48.78;99443.41;5075834;28;20044;-63
2021/10/03 10:58:50;;;;;;;3.50;0.70;;;;;;;25.55;48.77;99451.38;5076249;28;20025;-63
2021/10/03 11:01:43;;;;;;;0.98;0.88;;;;;;;25.53;48.55;99453.56;5076218;28;20017;-63
2021/10/03 11:04:22;;;;;;;3.83;1.00;;;;;;;25.54;48.57;99449.72;5071771;28;20048;-62
2021/10/03 11:06:47;;;;;;;2.00;1.25;;;;;;;25.53;48.55;99453.56;5049856;28;20036;-62
2021/10/03 11:09:16;;;;;;;3.47;1.30;;;;;;;25.57;48.27;99451.13;5075963;28;20159;-63
2021/10/03 11:11:54;;;;;;;2.67;1.35;;;;;;;25.57;48.42;99440.97;5075613;28;20499;-63
2021/10/03 11:14:21;;;;;;;2.53;1.13;;;;;;;25.57;48.68;99438.25;5075552;28;20044;-64
2021/10/03 11:16:50;;;;;;;2.22;1.70;;;;;;;25.60;48.91;99443.19;5075491;28;20028;-63
2021/10/03 11:19:21;;;;;;;1.73;1.35;;;;;;;25.67;48.81;99441.06;5075960;28;20029;-62
2021/10/03 11:21:58;;;;;;;1.98;1.65;;;;;;;25.74;48.12;99433.44;5057789;28;20510;-63
2021/10/03 11:24:31;;;;;;;2.63;1.80;;;;;;;25.80;48.75;99432.38;5057671;28;20028;-63
2021/10/03 11:27:05;;;;;;;3.75;1.90;;;;;;;25.80;48.99;99426.91;5075672;28;20028;-63
2021/10/03 11:29:51;;;;;;;3.67;2.35;;;;;;;25.82;48.65;99438.47;5056520;28;20420;-63
2021/10/03 11:32:20;;;;;;;4.55;2.30;;;;;;;25.88;48.84;99429.16;5075067;28;20016;-63
2021/10/03 11:35:04;;;;;;;2.97;2.03;;;;;;;25.93;48.47;99437.44;5057342;28;20032;-63
2021/10/03 11:37:41;;;;;;;3.55;1.98;;;;;;;26.01;48.75;99442.44;5075041;28;20079;-63